createdAt,value
2022-08-04T00:00:05.531Z,0.000000
2022-08-04T00:01:01.024Z,0.000000
2022-08-04T00:02:01.149Z,0.000000
2022-08-04T00:03:01.050Z,0.000000
2022-08-04T00:04:01.099Z,0.000000
2022-08-04T00:05:05.459Z,0.000000
2022-08-04T00:06:01.235Z,0.000000
2022-08-04T00:07:01.063Z,0.000000
2022-08-04T00:08:01.134Z,0.000000
2022-08-04T00:09:01.089Z,0.000000
2022-08-04T00:10:04.396Z,0.000000
2022-08-04T00:11:01.090Z,0.000000
2022-08-04T00:12:01.199Z,0.000000
2022-08-04T00:13:01.106Z,0.000000
2022-08-04T00:14:03.306Z,0.000000
2022-08-04T00:15:03.909Z,0.000000
2022-08-04T00:16:01.187Z,0.000000
2022-08-04T00:17:01.128Z,0.000000
2022-08-04T00:18:01.337Z,0.000000
2022-08-04T00:19:01.448Z,0.000000
2022-08-04T00:20:05.018Z,0.000000
2022-08-04T00:21:01.156Z,0.000000
2022-08-04T00:22:01.217Z,0.000000
2022-08-04T00:23:01.157Z,0.000000
2022-08-04T00:24:11.070Z,0.000000
2022-08-04T00:25:03.016Z,0.000000
2022-08-04T00:26:00.272Z,0.000000
2022-08-04T00:27:00.192Z,0.000000
2022-08-04T00:28:00.240Z,0.000000
2022-08-04T00:29:00.204Z,0.000000
2022-08-04T00:30:04.748Z,0.000000
2022-08-04T00:31:00.209Z,0.000000
2022-08-04T00:32:00.267Z,0.000000
2022-08-04T00:33:00.238Z,0.000000
2022-08-04T00:34:00.287Z,0.000000
2022-08-04T00:35:03.197Z,0.000000
2022-08-04T00:36:00.329Z,0.000000
2022-08-04T00:37:00.248Z,0.000000
2022-08-04T00:38:00.321Z,0.000000
2022-08-04T00:39:00.321Z,0.000000
2022-08-04T00:40:04.662Z,0.000000
2022-08-04T00:41:00.264Z,0.000000
2022-08-04T00:42:00.392Z,0.000000
2022-08-04T00:43:00.287Z,0.000000
2022-08-04T00:44:00.354Z,0.000000
2022-08-04T00:45:03.674Z,0.000000
2022-08-04T00:46:14.937Z,0.000000
2022-08-04T00:47:00.318Z,0.000000
2022-08-04T00:48:00.424Z,0.000000
2022-08-04T00:49:00.317Z,0.000000
2022-08-04T00:50:03.741Z,0.000000
2022-08-04T00:51:00.348Z,0.000000
2022-08-04T00:52:30.677Z,0.000000
2022-08-04T00:53:00.346Z,0.000000
2022-08-04T00:54:00.444Z,0.000000
2022-08-04T00:55:07.107Z,0.000000
2022-08-04T00:56:00.417Z,0.000000
2022-08-04T00:57:00.370Z,0.000000
2022-08-04T00:58:00.564Z,0.000000
2022-08-04T00:59:00.384Z,0.000000
2022-08-04T01:00:03.864Z,0.000000
2022-08-04T01:01:00.502Z,0.000000
2022-08-04T01:02:00.483Z,0.000000
2022-08-04T01:03:00.439Z,0.000000
2022-08-04T01:04:00.497Z,0.000000
2022-08-04T01:05:03.153Z,0.000000
2022-08-04T01:06:00.549Z,0.000000
2022-08-04T01:07:00.466Z,0.000000
2022-08-04T01:08:00.517Z,0.000000
2022-08-04T01:09:00.485Z,0.000000
2022-08-04T01:10:03.691Z,0.000000
2022-08-04T01:11:00.486Z,0.000000
2022-08-04T01:12:00.763Z,0.000000
2022-08-04T01:13:00.483Z,0.000000
2022-08-04T01:14:00.583Z,0.000000
2022-08-04T01:15:03.374Z,0.000000
2022-08-04T01:16:01.032Z,0.000000
2022-08-04T01:17:00.513Z,0.000000
2022-08-04T01:18:00.645Z,0.000000
2022-08-04T01:19:00.533Z,0.000000
2022-08-04T01:20:05.025Z,0.000000
2022-08-04T01:21:00.549Z,0.000000
2022-08-04T01:22:00.617Z,0.000000
2022-08-04T01:23:00.571Z,0.000000
2022-08-04T01:24:00.662Z,0.000000
2022-08-04T01:25:04.515Z,0.000000
2022-08-04T01:26:00.646Z,0.000000
2022-08-04T01:27:00.595Z,0.000000
2022-08-04T01:28:00.668Z,0.000000
2022-08-04T01:29:00.609Z,0.000000
2022-08-04T01:30:03.812Z,0.000000
2022-08-04T01:31:00.605Z,0.000000
2022-08-04T01:32:00.698Z,0.000000
2022-08-04T01:33:00.650Z,0.000000
2022-08-04T01:34:04.072Z,0.000000
2022-08-04T01:35:03.635Z,0.000000
2022-08-04T01:36:00.807Z,0.000000
2022-08-04T01:37:00.678Z,0.000000
2022-08-04T01:38:00.739Z,0.000000
2022-08-04T01:39:00.764Z,0.000000
2022-08-04T01:40:04.325Z,0.000000
2022-08-04T01:41:00.712Z,0.000000
2022-08-04T01:42:00.807Z,0.000000
2022-08-04T01:43:00.729Z,0.000000
2022-08-04T01:44:00.785Z,0.000000
2022-08-04T01:45:23.144Z,0.000000
2022-08-04T01:46:00.797Z,0.000000
2022-08-04T01:47:00.744Z,0.000000
2022-08-04T01:48:00.851Z,0.000000
2022-08-04T01:49:00.756Z,0.000000
2022-08-04T01:50:04.342Z,0.000000
2022-08-04T01:51:00.782Z,0.000000
2022-08-04T01:52:00.841Z,0.000000
2022-08-04T01:53:00.788Z,0.000000
2022-08-04T01:54:00.893Z,0.000000
2022-08-04T01:55:03.626Z,0.000000
2022-08-04T01:56:00.860Z,0.000000
2022-08-04T01:57:00.817Z,0.000000
2022-08-04T01:58:00.867Z,0.000000
2022-08-04T01:59:00.802Z,0.000000
2022-08-04T02:00:04.142Z,0.000000
2022-08-04T02:01:00.913Z,0.000000
2022-08-04T02:02:00.948Z,0.000000
2022-08-04T02:03:00.980Z,0.000000
2022-08-04T02:04:21.553Z,0.000000
2022-08-04T02:05:03.716Z,0.000000
2022-08-04T02:06:02.463Z,0.000000
2022-08-04T02:07:00.886Z,0.000000
2022-08-04T02:08:00.948Z,0.000000
2022-08-04T02:09:00.918Z,0.000000
2022-08-04T02:10:04.107Z,0.000000
2022-08-04T02:11:00.901Z,0.000000
2022-08-04T02:12:01.001Z,0.000000
2022-08-04T02:13:00.919Z,0.000000
2022-08-04T02:14:00.988Z,0.000000
2022-08-04T02:15:04.011Z,0.000000
2022-08-04T02:16:01.011Z,0.000000
2022-08-04T02:17:01.142Z,0.000000
2022-08-04T02:18:01.075Z,0.000000
2022-08-04T02:19:00.967Z,0.000000
2022-08-04T02:20:05.050Z,0.000000
2022-08-04T02:21:00.980Z,0.000000
2022-08-04T02:22:01.045Z,0.000000
2022-08-04T02:23:00.987Z,0.000000
2022-08-04T02:24:01.104Z,0.000000
2022-08-04T02:25:03.742Z,0.000000
2022-08-04T02:26:01.067Z,0.000000
2022-08-04T02:27:01.026Z,0.000000
2022-08-04T02:28:01.245Z,0.000000
2022-08-04T02:29:01.018Z,0.000000
2022-08-04T02:30:04.601Z,0.000000
2022-08-04T02:31:01.056Z,0.000000
2022-08-04T02:32:01.116Z,0.000000
2022-08-04T02:33:01.070Z,0.000000
2022-08-04T02:34:01.124Z,0.000000
2022-08-04T02:35:04.478Z,0.000000
2022-08-04T02:36:02.235Z,0.000000
2022-08-04T02:37:01.062Z,0.000000
2022-08-04T02:38:01.157Z,0.000000
2022-08-04T02:39:01.173Z,0.000000
2022-08-04T02:40:04.369Z,0.000000
2022-08-04T02:41:01.097Z,0.000000
2022-08-04T02:42:01.227Z,0.000000
2022-08-04T02:43:01.123Z,0.000000
2022-08-04T02:44:01.186Z,0.000000
2022-08-04T02:45:03.967Z,0.000000
2022-08-04T02:46:01.213Z,0.000000
2022-08-04T02:47:01.157Z,0.000000
2022-08-04T02:48:29.657Z,0.000000
2022-08-04T02:49:00.221Z,0.000000
2022-08-04T02:50:03.294Z,0.000000
2022-08-04T02:51:00.199Z,0.000000
2022-08-04T02:52:00.253Z,0.000000
2022-08-04T02:53:00.206Z,0.000000
2022-08-04T02:54:00.298Z,0.000000
2022-08-04T02:55:03.156Z,0.000000
2022-08-04T02:56:00.301Z,0.000000
2022-08-04T02:57:00.250Z,0.000000
2022-08-04T02:58:00.296Z,0.000000
2022-08-04T02:59:00.243Z,0.000000
2022-08-04T03:00:03.685Z,0.000000
2022-08-04T03:01:00.318Z,0.000000
2022-08-04T03:02:00.324Z,0.000000
2022-08-04T03:03:00.279Z,0.000000
2022-08-04T03:04:00.336Z,0.000000
2022-08-04T03:05:03.308Z,0.000000
2022-08-04T03:06:00.848Z,0.000000
2022-08-04T03:07:00.309Z,0.000000
2022-08-04T03:08:00.384Z,0.000000
2022-08-04T03:09:00.321Z,0.000000
2022-08-04T03:10:04.742Z,0.000000
2022-08-04T03:11:00.340Z,0.000000
2022-08-04T03:12:00.441Z,0.000000
2022-08-04T03:13:00.340Z,0.000000
2022-08-04T03:14:00.417Z,0.000000
2022-08-04T03:15:03.180Z,0.000000
2022-08-04T03:16:00.433Z,0.000000
2022-08-04T03:17:00.383Z,0.000000
2022-08-04T03:18:00.647Z,0.000000
2022-08-04T03:19:00.383Z,0.000000
2022-08-04T03:20:05.094Z,0.000000
2022-08-04T03:21:00.409Z,0.000000
2022-08-04T03:22:00.471Z,0.000000
2022-08-04T03:23:13.148Z,0.000000
2022-08-04T03:24:00.535Z,0.000000
2022-08-04T03:25:03.168Z,0.000000
2022-08-04T03:26:00.490Z,0.000000
2022-08-04T03:27:00.455Z,0.000000
2022-08-04T03:28:00.511Z,0.000000
2022-08-04T03:29:00.463Z,0.000000
2022-08-04T03:30:04.121Z,0.000000
2022-08-04T03:31:00.500Z,0.000000
2022-08-04T03:32:00.553Z,0.000000
2022-08-04T03:33:00.509Z,2.000000
2022-08-04T03:34:00.564Z,2.000000
2022-08-04T03:35:03.355Z,2.000000
2022-08-04T03:36:00.622Z,4.100000
2022-08-04T03:37:00.508Z,4.100000
2022-08-04T03:38:00.592Z,4.100000
2022-08-04T03:39:00.581Z,8.100000
2022-08-04T03:40:03.882Z,8.100000
2022-08-04T03:41:00.546Z,14.200000
2022-08-04T03:42:04.069Z,14.200000
2022-08-04T03:43:00.543Z,20.300000
2022-08-04T03:44:00.639Z,20.300000
2022-08-04T03:45:03.542Z,24.400000
2022-08-04T03:46:00.647Z,24.400000
2022-08-04T03:47:00.570Z,24.400000
2022-08-04T03:48:00.685Z,42.700000
2022-08-04T03:49:00.584Z,42.700000
2022-08-04T03:50:04.508Z,42.700000
2022-08-04T03:51:00.623Z,52.900000
2022-08-04T03:52:00.697Z,52.900000
2022-08-04T03:53:00.626Z,71.200000
2022-08-04T03:54:00.732Z,71.200000
2022-08-04T03:55:03.464Z,85.400000
2022-08-04T03:56:01.489Z,85.400000
2022-08-04T03:57:00.672Z,85.400000
2022-08-04T03:58:00.720Z,85.400000
2022-08-04T03:59:00.680Z,85.400000
2022-08-04T04:00:04.359Z,85.400000
2022-08-04T04:01:00.707Z,140.300000
2022-08-04T04:02:02.750Z,140.300000
2022-08-04T04:03:00.713Z,172.900000
2022-08-04T04:04:00.774Z,172.900000
2022-08-04T04:05:04.897Z,172.900000
2022-08-04T04:06:02.421Z,201.400000
2022-08-04T04:07:00.724Z,201.400000
2022-08-04T04:08:01.974Z,201.400000
2022-08-04T04:09:00.742Z,252.200000
2022-08-04T04:10:07.287Z,252.200000
2022-08-04T04:11:00.752Z,252.200000
2022-08-04T04:12:00.848Z,303.100000
2022-08-04T04:13:00.767Z,303.100000
2022-08-04T04:14:00.839Z,362.100000
2022-08-04T04:15:03.581Z,362.100000
2022-08-04T04:16:00.831Z,419.000000
2022-08-04T04:17:00.785Z,419.000000
2022-08-04T04:18:00.903Z,419.000000
2022-08-04T04:19:00.804Z,478.000000
2022-08-04T04:20:04.125Z,478.000000
2022-08-04T04:21:00.820Z,567.500000
2022-08-04T04:22:00.874Z,567.500000
2022-08-04T04:23:00.832Z,567.500000
2022-08-04T04:24:00.948Z,650.900000
2022-08-04T04:25:04.127Z,650.900000
2022-08-04T04:26:00.902Z,650.900000
2022-08-04T04:27:00.874Z,722.100000
2022-08-04T04:28:44.857Z,722.100000
2022-08-04T04:29:03.362Z,797.300000
2022-08-04T04:30:03.935Z,797.300000
2022-08-04T04:31:00.879Z,797.300000
2022-08-04T04:32:01.492Z,892.900000
2022-08-04T04:33:00.894Z,892.900000
2022-08-04T04:34:00.967Z,892.900000
2022-08-04T04:35:03.788Z,974.300000
2022-08-04T04:36:01.021Z,974.300000
2022-08-04T04:37:00.911Z,1045.500000
2022-08-04T04:38:00.982Z,1045.500000
2022-08-04T04:39:00.973Z,1092.300000
2022-08-04T04:40:16.744Z,1092.300000
2022-08-04T04:41:00.954Z,1155.300000
2022-08-04T04:42:01.054Z,1155.300000
2022-08-04T04:43:00.960Z,1155.300000
2022-08-04T04:44:01.032Z,1208.200000
2022-08-04T04:45:03.848Z,1208.200000
2022-08-04T04:46:01.503Z,1208.200000
2022-08-04T04:47:00.989Z,1281.400000
2022-08-04T04:48:10.019Z,1281.400000
2022-08-04T04:49:01.009Z,1350.600000
2022-08-04T04:50:04.270Z,1350.600000
2022-08-04T04:51:01.033Z,1350.600000
2022-08-04T04:52:01.098Z,1370.900000
2022-08-04T04:53:01.047Z,1370.900000
2022-08-04T04:54:01.155Z,1370.900000
2022-08-04T04:55:03.866Z,1488.900000
2022-08-04T04:56:01.166Z,1488.900000
2022-08-04T04:57:01.071Z,1554.000000
2022-08-04T04:58:01.137Z,1554.000000
2022-08-04T04:59:01.072Z,1554.000000
2022-08-04T05:00:04.653Z,1596.700000
2022-08-04T05:01:01.126Z,1596.700000
2022-08-04T05:02:01.193Z,1615.000000
2022-08-04T05:03:03.045Z,1615.000000
2022-08-04T05:04:01.210Z,1629.200000
2022-08-04T05:05:04.494Z,1629.200000
2022-08-04T05:06:01.352Z,1629.200000
2022-08-04T05:07:00.147Z,1751.000000
2022-08-04T05:08:00.219Z,1751.000000
2022-08-04T05:09:00.164Z,1751.000000
2022-08-04T05:10:03.473Z,1871.000000
2022-08-04T05:11:00.174Z,1871.000000
2022-08-04T05:12:00.338Z,1755.000000
2022-08-04T05:14:37.121Z,1949.000000
2022-08-04T05:14:38.406Z,1755.000000
2022-08-04T05:15:04.439Z,1949.000000
2022-08-04T05:16:00.288Z,1949.000000
2022-08-04T05:17:00.214Z,2242.000000
2022-08-04T05:18:00.340Z,2242.000000
2022-08-04T05:19:00.231Z,2242.000000
2022-08-04T05:20:04.112Z,2459.000000
2022-08-04T05:21:00.282Z,2459.000000
2022-08-04T05:22:00.341Z,2475.000000
2022-08-04T05:23:00.286Z,2475.000000
2022-08-04T05:24:00.386Z,2475.000000
2022-08-04T05:25:03.070Z,2559.000000
2022-08-04T05:26:00.792Z,2559.000000
2022-08-04T05:27:00.327Z,2638.000000
2022-08-04T05:28:00.386Z,2638.000000
2022-08-04T05:29:00.306Z,2722.000000
2022-08-04T05:30:03.592Z,2722.000000
2022-08-04T05:31:00.328Z,2722.000000
2022-08-04T05:32:01.543Z,2842.000000
2022-08-04T05:33:00.353Z,2842.000000
2022-08-04T05:34:00.419Z,2844.000000
2022-08-04T05:35:03.602Z,2844.000000
2022-08-04T05:36:18.591Z,2744.000000
2022-08-04T05:37:00.356Z,2744.000000
2022-08-04T05:38:01.328Z,2744.000000
2022-08-04T05:39:00.452Z,2937.000000
2022-08-04T05:40:04.809Z,2937.000000
2022-08-04T05:41:00.387Z,2937.000000
2022-08-04T05:42:04.524Z,3051.000000
2022-08-04T05:43:00.394Z,3051.000000
2022-08-04T05:44:00.510Z,3051.000000
2022-08-04T05:45:03.316Z,3204.000000
2022-08-04T05:46:01.557Z,3204.000000
2022-08-04T05:47:00.438Z,3381.000000
2022-08-04T05:48:00.524Z,3381.000000
2022-08-04T05:49:00.443Z,3381.000000
2022-08-04T05:50:04.139Z,3749.000000
2022-08-04T05:51:01.271Z,3749.000000
2022-08-04T05:52:00.539Z,3749.000000
2022-08-04T05:53:01.573Z,3586.000000
2022-08-04T05:54:00.591Z,3586.000000
2022-08-04T05:55:03.357Z,3879.000000
2022-08-04T05:56:00.561Z,3879.000000
2022-08-04T05:57:00.513Z,3981.000000
2022-08-04T05:58:00.558Z,3981.000000
2022-08-04T05:59:00.510Z,3981.000000
2022-08-04T06:00:25.199Z,3999.000000
2022-08-04T06:01:00.559Z,3999.000000
2022-08-04T06:02:00.659Z,3811.000000
2022-08-04T06:03:00.566Z,3811.000000
2022-08-04T06:04:00.614Z,3811.000000
2022-08-04T06:05:03.645Z,3751.000000
2022-08-04T06:06:00.638Z,3751.000000
2022-08-04T06:07:00.586Z,3751.000000
2022-08-04T06:08:11.751Z,3778.000000
2022-08-04T06:09:00.598Z,3778.000000
2022-08-04T06:10:04.088Z,3710.000000
2022-08-04T06:11:00.653Z,3710.000000
2022-08-04T06:12:04.353Z,3710.000000
2022-08-04T06:13:00.618Z,3724.000000
2022-08-04T06:14:01.550Z,3724.000000
2022-08-04T06:15:04.533Z,3732.000000
2022-08-04T06:16:01.469Z,3732.000000
2022-08-04T06:17:00.676Z,3732.000000
2022-08-04T06:19:57.717Z,3814.000000
2022-08-04T06:20:01.127Z,3814.000000
2022-08-04T06:20:18.033Z,3842.000000
2022-08-04T06:21:00.684Z,3842.000000
2022-08-04T06:22:00.785Z,3941.000000
2022-08-04T06:23:00.730Z,3941.000000
2022-08-04T06:24:04.080Z,3941.000000
2022-08-04T06:25:03.734Z,3929.000000
2022-08-04T06:26:00.771Z,3929.000000
2022-08-04T06:27:00.741Z,3929.000000
2022-08-04T06:28:00.790Z,3929.000000
2022-08-04T06:29:00.758Z,3929.000000
2022-08-04T06:30:04.912Z,4015.000000
2022-08-04T06:31:00.750Z,4015.000000
2022-08-04T06:32:29.844Z,3934.000000
2022-08-04T06:33:03.350Z,3934.000000
2022-08-04T06:34:00.798Z,3934.000000
2022-08-04T06:35:04.995Z,3999.000000
2022-08-04T06:36:01.573Z,3999.000000
2022-08-04T06:37:00.772Z,3999.000000
2022-08-04T06:38:01.469Z,4116.000000
2022-08-04T06:39:00.891Z,4116.000000
2022-08-04T06:40:29.783Z,4107.000000
2022-08-04T06:41:00.829Z,4107.000000
2022-08-04T06:42:22.571Z,4107.000000
2022-08-04T06:43:00.826Z,4061.000000
2022-08-04T06:44:00.901Z,4061.000000
2022-08-04T06:45:03.775Z,4061.000000
2022-08-04T06:46:00.933Z,4129.000000
2022-08-04T06:47:00.909Z,4129.000000
2022-08-04T06:48:00.940Z,4129.000000
2022-08-04T06:49:00.862Z,4177.000000
2022-08-04T06:51:25.679Z,4284.000000
2022-08-04T06:51:26.620Z,4177.000000
2022-08-04T06:52:00.972Z,4284.000000
2022-08-04T06:53:00.917Z,4370.000000
2022-08-04T06:54:01.533Z,4370.000000
2022-08-04T06:55:03.875Z,4370.000000
2022-08-04T06:56:00.997Z,4435.000000
2022-08-04T06:57:00.929Z,4435.000000
2022-08-04T06:58:03.418Z,4468.000000
2022-08-04T06:59:00.931Z,4468.000000
2022-08-04T07:00:04.547Z,4468.000000
2022-08-04T07:01:00.972Z,4435.000000
2022-08-04T07:02:01.673Z,4435.000000
2022-08-04T07:03:01.001Z,4447.000000
2022-08-04T07:04:01.179Z,4447.000000
2022-08-04T07:05:07.655Z,4447.000000
2022-08-04T07:06:06.487Z,4506.000000
2022-08-04T07:07:01.024Z,4506.000000
2022-08-04T07:08:01.107Z,4506.000000
2022-08-04T07:09:01.040Z,4645.000000
2022-08-04T07:10:05.932Z,4645.000000
2022-08-04T07:11:01.057Z,4873.000000
2022-08-04T07:12:01.151Z,4873.000000
2022-08-04T07:13:01.060Z,4759.000000
2022-08-04T07:14:01.674Z,4759.000000
2022-08-04T07:15:04.345Z,4931.000000
2022-08-04T07:16:01.254Z,4931.000000
2022-08-04T07:17:01.080Z,4931.000000
2022-08-04T07:18:01.629Z,4801.000000
2022-08-04T07:19:10.486Z,4801.000000
2022-08-04T07:20:05.522Z,4801.000000
2022-08-04T07:21:01.120Z,5018.000000
2022-08-04T07:22:18.129Z,5018.000000
2022-08-04T07:23:01.121Z,5065.000000
2022-08-04T07:24:01.267Z,5065.000000
2022-08-04T07:25:04.347Z,5495.000000
2022-08-04T07:26:11.865Z,5495.000000
2022-08-04T07:27:01.151Z,5495.000000
2022-08-04T07:28:01.266Z,5429.000000
2022-08-04T07:29:00.160Z,5429.000000
2022-08-04T07:30:03.320Z,5429.000000
2022-08-04T07:31:00.169Z,5684.000000
2022-08-04T07:32:01.541Z,5684.000000
2022-08-04T07:33:00.194Z,5362.000000
2022-08-04T07:34:20.748Z,5362.000000
2022-08-04T07:35:03.140Z,5859.000000
2022-08-04T07:36:10.462Z,5859.000000
2022-08-04T07:37:00.212Z,5859.000000
2022-08-04T07:38:00.289Z,5859.000000
2022-08-04T07:39:00.283Z,5851.000000
2022-08-04T07:40:03.590Z,5851.000000
2022-08-04T07:41:00.242Z,5812.000000
2022-08-04T07:42:01.661Z,5812.000000
2022-08-04T07:43:00.250Z,5812.000000
2022-08-04T07:44:02.074Z,6033.000000
2022-08-04T07:45:03.396Z,6033.000000
2022-08-04T07:46:00.406Z,6141.000000
2022-08-04T07:47:00.273Z,6141.000000
2022-08-04T07:48:04.829Z,6170.000000
2022-08-04T07:49:00.283Z,6170.000000
2022-08-04T07:50:05.242Z,6170.000000
2022-08-04T07:51:00.324Z,6061.000000
2022-08-04T07:52:01.636Z,6061.000000
2022-08-04T07:53:53.451Z,6061.000000
2022-08-04T07:54:00.548Z,6312.000000
2022-08-04T07:55:04.543Z,6312.000000
2022-08-04T07:56:01.583Z,6251.000000
2022-08-04T07:57:00.374Z,6251.000000
2022-08-04T07:58:00.458Z,6612.000000
2022-08-04T07:59:00.354Z,6612.000000
2022-08-04T08:00:04.958Z,6612.000000
2022-08-04T08:01:00.369Z,6890.000000
2022-08-04T08:02:00.475Z,6890.000000
2022-08-04T08:03:00.529Z,6890.000000
2022-08-04T08:04:01.693Z,6890.000000
2022-08-04T08:05:04.992Z,6890.000000
2022-08-04T08:06:31.451Z,6890.000000
2022-08-04T08:07:00.430Z,6878.000000
2022-08-04T08:08:01.636Z,6878.000000
2022-08-04T08:09:00.431Z,6912.000000
2022-08-04T08:10:03.775Z,6912.000000
2022-08-04T08:11:00.425Z,7011.000000
2022-08-04T08:12:38.717Z,7011.000000
2022-08-04T08:13:00.444Z,7011.000000
2022-08-04T08:14:00.547Z,6701.000000
2022-08-04T08:15:04.716Z,6701.000000
2022-08-04T08:16:02.105Z,6701.000000
2022-08-04T08:17:00.469Z,7098.000000
2022-08-04T08:18:00.981Z,7098.000000
2022-08-04T08:19:00.480Z,7482.000000
2022-08-04T08:20:03.826Z,7482.000000
2022-08-04T08:21:00.707Z,7812.000000
2022-08-04T08:22:01.661Z,7812.000000
2022-08-04T08:23:00.510Z,7812.000000
2022-08-04T08:24:00.662Z,8009.000000
2022-08-04T08:25:03.352Z,8009.000000
2022-08-04T08:26:00.612Z,8009.000000
2022-08-04T08:27:00.760Z,8430.000000
2022-08-04T08:28:00.696Z,8430.000000
2022-08-04T08:29:00.553Z,8954.000000
2022-08-04T08:30:04.084Z,8954.000000
2022-08-04T08:31:00.810Z,8954.000000
2022-08-04T08:32:07.063Z,8780.000000
2022-08-04T08:33:00.603Z,8780.000000
2022-08-04T08:34:00.699Z,11460.000000
2022-08-04T08:35:03.831Z,11460.000000
2022-08-04T08:36:02.084Z,11460.000000
2022-08-04T08:37:00.621Z,8939.000000
2022-08-04T08:38:00.792Z,8939.000000
2022-08-04T08:39:00.679Z,41550.000000
2022-08-04T08:40:05.067Z,41550.000000
2022-08-04T08:41:00.650Z,41550.000000
2022-08-04T08:42:00.726Z,31280.000000
2022-08-04T08:43:59.880Z,31280.000000
2022-08-04T08:44:05.405Z,20320.000000
2022-08-04T08:45:03.704Z,20320.000000
2022-08-04T08:46:00.745Z,20320.000000
2022-08-04T08:47:00.685Z,24860.000000
2022-08-04T08:48:06.350Z,24860.000000
2022-08-04T08:49:00.697Z,17300.000000
2022-08-04T08:50:04.615Z,17300.000000
2022-08-04T08:51:00.725Z,17300.000000
2022-08-04T08:52:00.791Z,13790.000000
2022-08-04T08:53:02.936Z,13790.000000
2022-08-04T08:54:00.837Z,13010.000000
2022-08-04T08:55:03.562Z,13010.000000
2022-08-04T08:56:00.876Z,13010.000000
2022-08-04T08:57:00.777Z,15080.000000
2022-08-04T08:58:00.919Z,15080.000000
2022-08-04T08:59:00.787Z,15080.000000
2022-08-04T09:00:05.598Z,25230.000000
2022-08-04T09:01:00.819Z,25230.000000
2022-08-04T09:02:01.763Z,19670.000000
2022-08-04T09:03:04.677Z,19670.000000
2022-08-04T09:04:00.916Z,19670.000000
2022-08-04T09:05:03.884Z,9055.000000
2022-08-04T09:06:01.319Z,9055.000000
2022-08-04T09:07:00.865Z,18860.000000
2022-08-04T09:08:01.708Z,18860.000000
2022-08-04T09:09:00.882Z,18860.000000
2022-08-04T09:10:04.329Z,26900.000000
2022-08-04T09:11:00.893Z,26900.000000
2022-08-04T09:12:01.501Z,32910.000000
2022-08-04T09:13:00.896Z,32910.000000
2022-08-04T09:14:01.060Z,32910.000000
2022-08-04T09:15:04.395Z,38420.000000
2022-08-04T09:16:01.597Z,38420.000000
2022-08-04T09:17:00.937Z,39430.000000
2022-08-04T09:18:01.069Z,39430.000000
2022-08-04T09:19:00.946Z,39430.000000
2022-08-04T09:20:04.345Z,41770.000000
2022-08-04T09:21:00.969Z,41770.000000
2022-08-04T09:22:01.050Z,41770.000000
2022-08-04T09:23:00.980Z,44490.000000
2022-08-04T09:24:01.033Z,44490.000000
2022-08-04T09:25:03.918Z,8261.000000
2022-08-04T09:26:01.327Z,8261.000000
2022-08-04T09:27:01.000Z,8261.000000
2022-08-04T09:28:09.182Z,8392.000000
2022-08-04T09:29:01.008Z,8392.000000
2022-08-04T09:30:05.937Z,8564.000000
2022-08-04T09:31:01.035Z,8564.000000
2022-08-04T09:32:07.572Z,8564.000000
2022-08-04T09:33:01.045Z,8564.000000
2022-08-04T09:34:01.127Z,8564.000000
2022-08-04T09:35:08.572Z,8611.000000
2022-08-04T09:36:01.615Z,8611.000000
2022-08-04T09:37:01.071Z,8611.000000
2022-08-04T09:38:01.195Z,8639.000000
2022-08-04T09:39:01.135Z,8639.000000
2022-08-04T09:40:04.320Z,8674.000000
2022-08-04T09:41:01.094Z,8674.000000
2022-08-04T09:42:01.193Z,8674.000000
2022-08-04T09:43:01.106Z,8700.000000
2022-08-04T09:44:50.906Z,8700.000000
2022-08-04T09:45:06.327Z,8700.000000
2022-08-04T09:46:01.204Z,8679.000000
2022-08-04T09:47:01.136Z,8679.000000
2022-08-04T09:48:01.650Z,8533.000000
2022-08-04T09:49:01.152Z,8533.000000
2022-08-04T09:50:03.576Z,8477.000000
2022-08-04T09:51:00.186Z,8477.000000
2022-08-04T09:52:01.593Z,8477.000000
2022-08-04T09:53:00.192Z,8712.000000
2022-08-04T09:54:00.332Z,8712.000000
2022-08-04T09:55:03.725Z,8777.000000
2022-08-04T09:56:03.432Z,8777.000000
2022-08-04T09:57:00.240Z,8777.000000
2022-08-04T09:58:00.387Z,9012.000000
2022-08-04T09:59:00.221Z,9012.000000
2022-08-04T10:00:04.796Z,8939.000000
2022-08-04T10:01:00.250Z,8939.000000
2022-08-04T10:02:00.522Z,8939.000000
2022-08-04T10:03:00.330Z,8902.000000
2022-08-04T10:04:01.608Z,8902.000000
2022-08-04T10:05:03.371Z,8951.000000
2022-08-04T10:06:00.397Z,8951.000000
2022-08-04T10:07:00.315Z,8951.000000
2022-08-04T10:08:15.815Z,14890.000000
2022-08-04T10:09:00.323Z,14890.000000
2022-08-04T10:10:03.539Z,14890.000000
2022-08-04T10:11:00.356Z,18950.000000
2022-08-04T10:12:02.206Z,18950.000000
2022-08-04T10:13:00.348Z,23910.000000
2022-08-04T10:14:00.488Z,23910.000000
2022-08-04T10:15:03.601Z,27440.000000
2022-08-04T10:16:01.576Z,27440.000000
2022-08-04T10:17:00.365Z,27440.000000
2022-08-04T10:18:00.470Z,8810.000000
2022-08-04T10:19:08.025Z,8810.000000
2022-08-04T10:20:03.865Z,45200.000000
2022-08-04T10:21:07.869Z,45200.000000
2022-08-04T10:22:28.930Z,45200.000000
2022-08-04T10:23:11.156Z,58120.000000
2022-08-04T10:24:00.755Z,58120.000000
2022-08-04T10:25:03.073Z,68020.000000
2022-08-04T10:26:07.422Z,68020.000000
2022-08-04T10:27:00.437Z,68020.000000
2022-08-04T10:28:00.545Z,55070.000000
2022-08-04T10:29:00.449Z,55070.000000
2022-08-04T10:30:05.109Z,100000.000000
2022-08-04T10:31:00.475Z,100000.000000
2022-08-04T10:32:01.717Z,100000.000000
2022-08-04T10:33:00.588Z,77140.000000
2022-08-04T10:34:00.773Z,77140.000000
2022-08-04T10:35:03.465Z,54190.000000
2022-08-04T10:36:01.590Z,54190.000000
2022-08-04T10:37:00.509Z,54190.000000
2022-08-04T10:38:01.751Z,7066.000000
2022-08-04T10:39:00.558Z,7066.000000
2022-08-04T10:40:03.910Z,7066.000000
2022-08-04T10:41:00.528Z,21920.000000
2022-08-04T10:42:00.611Z,21920.000000
2022-08-04T10:43:00.549Z,21920.000000
2022-08-04T10:44:01.679Z,30800.000000
2022-08-04T10:45:04.716Z,30800.000000
2022-08-04T10:46:00.669Z,37050.000000
2022-08-04T10:47:00.566Z,37050.000000
2022-08-04T10:48:01.794Z,49740.000000
2022-08-04T10:49:00.579Z,49740.000000
2022-08-04T10:50:05.462Z,49740.000000
2022-08-04T10:51:00.620Z,90500.000000
2022-08-04T10:52:01.578Z,90500.000000
2022-08-04T10:53:00.626Z,90500.000000
2022-08-04T10:54:00.782Z,89510.000000
2022-08-04T10:55:03.417Z,89510.000000
2022-08-04T10:56:06.874Z,68760.000000
2022-08-04T10:57:00.668Z,68760.000000
2022-08-04T10:58:00.704Z,32080.000000
2022-08-04T10:59:00.649Z,32080.000000
2022-08-04T11:00:04.646Z,32080.000000
2022-08-04T11:01:00.683Z,5598.000000
2022-08-04T11:02:03.551Z,5598.000000
2022-08-04T11:03:00.739Z,5598.000000
2022-08-04T11:04:01.609Z,5417.000000